Time;durP1;ratioP1;P1;durP2;ratioP2;P2;SDS_P1;SDS_P2;PMS_P1;PMS_P2;Temp;Humidity;BMP_temperature;BMP_pressure;BME280_temperature;BME280_humidity;BME280_pressure;Samples;Min_cycle;Max_cycle;Signal;HPM_P1;HPM_P2
2023/01/07 00:01:16;;;;;;;7.80;5.60;;;16.10;94.60;;;;;;5055718;28;20045;-72
2023/01/07 00:03:42;;;;;;;8.48;5.47;;;15.90;94.70;;;;;;5055203;28;20041;-72
2023/01/07 00:06:12;;;;;;;8.25;5.53;;;16.40;94.70;;;;;;5054477;28;20036;-71
2023/01/07 00:08:40;;;;;;;10.95;6.07;;;15.90;96.00;;;;;;5056407;28;20049;-71
2023/01/07 00:11:07;;;;;;;8.60;6.10;;;15.80;96.00;;;;;;5055620;28;20049;-70
2023/01/07 00:13:33;;;;;;;10.43;6.38;;;16.30;96.10;;;;;;5055232;28;20051;-72
2023/01/07 00:16:05;;;;;;;8.68;6.05;;;15.90;96.00;;;;;;5055042;28;20389;-71
2023/01/07 00:18:31;;;;;;;9.25;6.20;;;16.20;96.10;;;;;;5054888;28;20049;-72
2023/01/07 00:20:57;;;;;;;8.52;5.90;;;16.20;96.10;;;;;;5037211;28;20140;-71
2023/01/07 00:23:24;;;;;;;10.10;6.70;;;16.00;96.10;;;;;;5055065;28;20072;-70
2023/01/07 00:25:50;;;;;;;8.88;6.35;;;16.10;95.10;;;;;;5054688;28;20529;-72
2023/01/07 00:28:16;;;;;;;9.02;6.28;;;;;;;;;;5054994;28;20048;-71
2023/01/07 00:30:42;;;;;;;10.35;6.90;;;16.10;96.10;;;;;;5054945;28;20083;-70
2023/01/07 00:33:12;;;;;;;9.90;6.78;;;15.90;96.10;;;;;;5055017;28;20111;-70
2023/01/07 00:35:37;;;;;;;9.25;6.63;;;16.20;96.20;;;;;;5054132;28;20052;-71
2023/01/07 00:38:04;;;;;;;8.57;6.22;;;;;;;;;;5055063;28;20391;-70
2023/01/07 00:40:30;;;;;;;9.48;6.55;;;16.00;94.70;;;;;;5020647;28;20521;-70
2023/01/07 00:43:04;;;;;;;9.40;6.55;;;16.00;96.10;;;;;;5054882;28;20052;-72
2023/01/07 00:45:32;;;;;;;10.23;6.40;;;16.20;94.80;;;;;;5054198;28;20045;-71
2023/01/07 00:47:58;;;;;;;8.07;5.97;;;;;;;;;;5037044;28;20040;-73
2023/01/07 00:50:25;;;;;;;13.15;6.75;;;;;;;;;;5056629;28;20036;-76
2023/01/07 00:52:52;;;;;;;9.20;6.50;;;;;;;;;;5055711;28;20512;-75
2023/01/07 00:55:18;;;;;;;8.82;6.38;;;;;;;;;;5036695;28;20049;-71
2023/01/07 00:57:44;;;;;;;8.57;6.22;;;;;;;;;;5054553;28;20041;-73
2023/01/07 01:00:11;;;;;;;7.40;5.93;;;16.00;96.10;;;;;;5037461;28;20055;-72
2023/01/07 01:02:37;;;;;;;8.15;5.85;;;;;;;;;;5036316;28;20443;-71
2023/01/07 01:05:04;;;;;;;7.75;5.72;;;16.20;96.20;;;;;;5035601;28;20632;-71
2023/01/07 01:07:30;;;;;;;8.57;6.18;;;;;;;;;;5053087;28;20635;-71
2023/01/07 01:09:56;;;;;;;7.72;6.10;;;;;;;;;;5053669;28;20048;-72
2023/01/07 01:12:22;;;;;;;8.18;6.30;;;16.00;96.20;;;;;;5054178;28;20120;-72
2023/01/07 01:14:47;;;;;;;8.00;6.05;;;15.90;95.60;;;;;;5053951;28;20135;-72
2023/01/07 01:17:13;;;;;;;8.98;6.10;;;16.10;96.30;;;;;;5035762;28;20049;-71
2023/01/07 01:19:39;;;;;;;7.85;5.82;;;16.10;96.30;;;;;;5054135;28;20056;-71
2023/01/07 01:22:05;;;;;;;8.43;6.72;;;16.10;96.40;;;;;;5035713;28;20040;-71
2023/01/07 01:24:30;;;;;;;9.27;6.38;;;16.00;96.40;;;;;;5035061;28;20048;-70
2023/01/07 01:26:56;;;;;;;8.32;6.25;;;16.10;96.30;;;;;;5053052;28;20045;-70
2023/01/07 01:29:22;;;;;;;8.30;6.10;;;15.90;96.30;;;;;;5054033;28;20402;-71
2023/01/07 01:31:49;;;;;;;7.68;5.95;;;;;;;;;;5054497;28;20037;-71
2023/01/07 01:34:14;;;;;;;7.28;5.53;;;16.30;95.30;;;;;;5053326;28;20037;-72
2023/01/07 01:36:40;;;;;;;8.07;6.45;;;16.00;95.50;;;;;;5052605;28;20486;-71
2023/01/07 01:39:06;;;;;;;7.97;5.88;;;16.10;95.30;;;;;;5053659;28;20064;-71
2023/01/07 01:41:32;;;;;;;7.63;5.65;;;16.30;96.50;;;;;;5035972;28;20550;-71
2023/01/07 01:43:57;;;;;;;8.25;6.05;;;16.00;96.40;;;;;;5053114;28;20150;-71
2023/01/07 01:46:30;;;;;;;7.80;5.60;;;16.30;94.80;;;;;;5052451;28;20041;-71
2023/01/07 01:49:01;;;;;;;7.22;5.90;;;15.70;96.30;;;;;;5053235;28;20045;-73
2023/01/07 01:51:27;;;;;;;7.05;5.70;;;16.00;95.30;;;;;;5036709;28;20094;-71
2023/01/07 01:53:53;;;;;;;7.65;5.82;;;16.00;96.50;;;;;;5035874;28;20086;-71
2023/01/07 01:56:21;;;;;;;7.50;5.72;;;16.30;96.60;;;;;;5052883;28;20041;-71
2023/01/07 01:58:53;;;;;;;7.05;5.72;;;16.10;96.60;;;;;;5035929;28;20043;-71
2023/01/07 02:01:19;;;;;;;7.78;5.88;;;16.00;96.60;;;;;;5052961;28;20048;-72
2023/01/07 02:03:45;;;;;;;7.45;5.75;;;;;;;;;;5052851;28;20627;-72
2023/01/07 02:06:14;;;;;;;7.60;5.57;;;16.00;95.40;;;;;;5052651;28;20049;-73
2023/01/07 02:08:40;;;;;;;7.15;5.72;;;15.90;96.60;;;;;;5035478;28;20490;-71
2023/01/07 02:11:27;;;;;;;7.35;5.97;;;15.70;96.70;;;;;;5053453;28;20174;-72
2023/01/07 02:14:17;;;;;;;7.35;5.70;;;16.00;94.80;;;;;;5053110;28;20089;-72
2023/01/07 02:16:47;;;;;;;6.80;5.45;;;16.00;96.60;;;;;;5034175;28;20060;-71
2023/01/07 02:19:57;;;;;;;7.57;5.72;;;15.80;95.50;;;;;;5018786;28;20045;-71
2023/01/07 02:22:55;;;;;;;7.22;5.70;;;16.00;95.60;;;;;;5029987;28;20531;-70
2023/01/07 02:25:45;;;;;;;6.93;5.30;;;15.80;96.70;;;;;;4956003;28;20059;-70
2023/01/07 02:28:14;;;;;;;6.60;5.70;;;16.10;96.80;;;;;;4937864;29;20545;-71
2023/01/07 02:31:10;;;;;;;7.13;5.88;;;16.00;95.70;;;;;;4937797;29;20056;-71
2023/01/07 02:33:37;;;;;;;7.13;5.68;;;16.00;95.50;;;;;;4951755;28;20043;-70
2023/01/07 02:36:35;;;;;;;6.68;5.50;;;16.10;95.10;;;;;;4906632;29;20047;-70
2023/01/07 02:39:12;;;;;;;6.93;5.75;;;16.00;97.10;;;;;;4937637;29;20132;-71
2023/01/07 02:41:47;;;;;;;7.25;5.72;;;16.20;97.00;;;;;;4937681;29;20052;-70
2023/01/07 02:44:38;;;;;;;6.80;5.15;;;16.00;97.10;;;;;;4939930;28;20047;-71
2023/01/07 02:47:27;;;;;;;6.72;5.32;;;16.30;97.10;;;;;;4955839;29;20078;-70
2023/01/07 02:49:53;;;;;;;6.47;5.13;;;16.00;96.90;;;;;;4927172;29;20086;-72
2023/01/07 02:52:27;;;;;;;6.32;5.13;;;16.30;95.90;;;;;;4956385;29;20156;-71
2023/01/07 02:55:02;;;;;;;7.05;5.38;;;16.10;97.10;;;;;;4956551;29;20081;-71
2023/01/07 02:57:28;;;;;;;6.43;5.20;;;16.10;95.90;;;;;;4938424;29;20051;-70
2023/01/07 03:00:09;;;;;;;6.28;5.05;;;16.00;97.20;;;;;;4964404;28;20050;-70
2023/01/07 03:02:54;;;;;;;7.18;5.22;;;15.90;95.20;;;;;;5056733;28;20048;-70
2023/01/07 03:05:52;;;;;;;6.70;5.22;;;16.00;97.20;;;;;;5038485;28;20526;-70
2023/01/07 03:08:52;;;;;;;7.22;5.43;;;16.10;95.90;;;;;;4951199;29;20062;-71
2023/01/07 03:11:18;;;;;;;7.63;5.00;;;16.00;97.10;;;;;;4956915;29;20066;-70
2023/01/07 03:13:49;;;;;;;7.65;5.20;;;16.10;97.20;;;;;;4924360;29;20110;-71
2023/01/07 03:16:20;;;;;;;6.55;5.15;;;16.10;95.30;;;;;;4955167;29;20054;-70
2023/01/07 03:18:49;;;;;;;7.07;5.13;;;16.00;97.10;;;;;;4938592;29;20443;-71
2023/01/07 03:21:15;;;;;;;7.05;5.43;;;;;;;;;;4940048;29;20083;-71
2023/01/07 03:23:44;;;;;;;6.93;5.60;;;16.20;97.40;;;;;;4940700;29;20504;-71
2023/01/07 03:26:11;;;;;;;6.18;5.03;;;;;;;;;;4939579;29;20433;-70
2023/01/07 03:28:39;;;;;;;6.72;5.40;;;16.10;97.20;;;;;;4954818;29;20051;-71
2023/01/07 03:31:05;;;;;;;6.88;5.30;;;16.10;97.20;;;;;;4954733;29;20055;-70
2023/01/07 03:34:05;;;;;;;7.18;5.40;;;15.90;95.30;;;;;;4922596;29;20047;-70
2023/01/07 03:36:36;;;;;;;7.85;5.10;;;;;;;;;;4926850;29;20066;-71
2023/01/07 03:39:01;;;;;;;6.68;5.15;;;16.10;96.10;;;;;;4939610;29;20110;-70
2023/01/07 03:44:11;;;;;;;7.55;5.22;;;16.00;97.30;;;;;;4970827;28;20041;-70
2023/01/07 03:46:37;;;;;;;6.50;5.03;;;16.20;97.40;;;;;;5055586;28;20040;-70
2023/01/07 03:49:03;;;;;;;8.00;5.47;;;16.30;97.50;;;;;;5054521;28;20049;-70
2023/01/07 03:51:29;;;;;;;6.53;4.97;;;16.10;97.30;;;;;;5055817;28;20044;-71
2023/01/07 03:53:55;;;;;;;7.05;5.75;;;16.20;97.40;;;;;;5037536;28;20064;-71
2023/01/07 03:56:20;;;;;;;6.68;5.50;;;16.20;96.30;;;;;;5056292;28;20120;-71
2023/01/07 03:58:46;;;;;;;6.38;4.97;;;15.80;97.30;;;;;;5053646;28;20041;-71
2023/01/07 04:01:12;;;;;;;6.75;5.10;;;15.90;97.40;;;;;;5055653;28;20045;-71
2023/01/07 04:03:38;;;;;;;7.00;5.43;;;;;;;;;;5055450;28;20443;-71
2023/01/07 04:06:04;;;;;;;8.15;5.60;;;;;;;;;;5055331;28;20451;-72
2023/01/07 04:08:30;;;;;;;7.18;5.55;;;;;;;;;;5054577;28;20076;-70
2023/01/07 04:10:56;;;;;;;8.07;5.78;;;16.10;97.50;;;;;;5055086;28;20052;-71
2023/01/07 04:13:22;;;;;;;7.15;5.13;;;16.00;97.60;;;;;;5055112;28;20033;-72
2023/01/07 04:15:48;;;;;;;6.50;5.05;;;16.10;97.50;;;;;;5055244;28;20047;-71
2023/01/07 04:18:13;;;;;;;6.40;5.50;;;16.10;97.50;;;;;;5054615;28;20037;-71
2023/01/07 04:20:39;;;;;;;6.85;5.30;;;;;;;;;;5036818;28;20055;-74
2023/01/07 04:23:05;;;;;;;7.95;5.35;;;16.10;97.60;;;;;;5055281;28;20049;-71
2023/01/07 04:25:31;;;;;;;6.57;5.57;;;16.10;97.60;;;;;;5055023;28;20057;-71
2023/01/07 04:27:57;;;;;;;7.35;5.40;;;;;;;;;;5054484;28;20045;-72
2023/01/07 04:30:23;;;;;;;7.35;5.72;;;16.10;97.60;;;;;;5036725;28;20079;-71
2023/01/07 04:32:50;;;;;;;6.80;5.57;;;;;;;;;;5054408;28;20077;-72
2023/01/07 04:35:16;;;;;;;7.82;5.65;;;;;;;;;;5054325;28;20048;-72
2023/01/07 04:37:42;;;;;;;7.30;5.43;;;;;;;;;;5036961;28;20060;-72
2023/01/07 04:40:08;;;;;;;8.20;5.70;;;16.40;96.60;;;;;;5036935;28;20065;-71
2023/01/07 04:42:34;;;;;;;7.60;5.75;;;16.10;97.60;;;;;;5036441;28;20047;-71
2023/01/07 04:45:00;;;;;;;8.52;5.47;;;16.00;97.50;;;;;;5035993;28;20045;-76
2023/01/07 04:47:26;;;;;;;7.30;5.70;;;16.10;97.60;;;;;;5052614;28;20040;-76
2023/01/07 04:49:55;;;;;;;6.78;4.95;;;;;;;;;;5021029;28;20048;-76
2023/01/07 04:52:21;;;;;;;6.75;5.18;;;;;;;;;;5036340;28;20041;-72
2023/01/07 04:54:47;;;;;;;8.65;6.13;;;;;;;;;;5054480;28;20077;-63
2023/01/07 04:57:13;;;;;;;7.78;5.85;;;;;;;;;;5053155;28;20082;-72
2023/01/07 04:59:39;;;;;;;9.48;5.90;;;16.00;97.60;;;;;;5055368;28;20045;-72
2023/01/07 05:02:05;;;;;;;8.25;5.78;;;;;;;;;;5054256;28;20045;-71
2023/01/07 05:04:31;;;;;;;8.63;5.30;;;;;;;;;;5036806;28;20103;-71
2023/01/07 05:06:57;;;;;;;7.50;5.78;;;16.20;97.80;;;;;;5052661;28;20041;-72
2023/01/07 05:09:23;;;;;;;7.28;5.30;;;16.20;96.60;;;;;;5053687;28;20052;-72
2023/01/07 05:11:49;;;;;;;8.32;6.07;;;16.20;97.70;;;;;;5053988;28;20090;-71
2023/01/07 05:14:15;;;;;;;7.80;6.07;;;;;;;;;;5054285;28;20175;-72
2023/01/07 05:16:41;;;;;;;8.13;5.53;;;;;;;;;;5054271;28;20041;-72
2023/01/07 05:19:08;;;;;;;8.07;5.88;;;15.90;97.80;;;;;;5053756;28;20082;-70
2023/01/07 05:21:34;;;;;;;7.70;5.90;;;16.30;97.80;;;;;;5035272;28;20399;-71
2023/01/07 05:23:59;;;;;;;10.52;5.57;;;15.90;97.70;;;;;;5053695;28;20039;-70
2023/01/07 05:26:25;;;;;;;9.63;5.85;;;;;;;;;;5053785;28;20049;-71
2023/01/07 05:28:51;;;;;;;9.75;6.32;;;16.20;97.80;;;;;;5053114;28;20052;-72
2023/01/07 05:31:17;;;;;;;9.55;6.30;;;16.30;97.90;;;;;;5052397;28;20052;-72
2023/01/07 05:33:43;;;;;;;9.75;6.30;;;16.00;97.70;;;;;;5052927;28;20132;-72
2023/01/07 05:36:09;;;;;;;8.25;6.22;;;16.10;97.70;;;;;;5053396;28;20069;-75
2023/01/07 05:38:35;;;;;;;7.95;5.72;;;16.30;97.80;;;;;;5036879;28;20033;-75
2023/01/07 05:41:01;;;;;;;9.57;6.45;;;;;;;;;;5035191;28;20051;-71
2023/01/07 05:43:27;;;;;;;8.45;6.03;;;;;;;;;;5036297;28;20509;-71
2023/01/07 05:45:54;;;;;;;8.45;6.00;;;16.10;98.00;;;;;;5053531;28;20047;-72
2023/01/07 05:48:20;;;;;;;8.68;5.95;;;15.70;97.70;;;;;;5053142;28;20048;-72
2023/01/07 05:50:46;;;;;;;8.55;6.53;;;;;;;;;;5035605;28;20036;-68
2023/01/07 05:53:12;;;;;;;8.82;6.05;;;16.20;97.90;;;;;;5053491;28;20045;-72
2023/01/07 05:55:39;;;;;;;8.63;5.93;;;;;;;;;;5052105;28;20450;-76
2023/01/07 05:58:05;;;;;;;8.05;6.13;;;;;;;;;;5034771;28;20102;-75
2023/01/07 06:00:31;;;;;;;8.45;6.28;;;;;;;;;;5053694;28;20052;-76
2023/01/07 06:03:00;;;;;;;8.55;6.20;;;;;;;;;;5052081;28;20075;-72
2023/01/07 06:05:26;;;;;;;8.02;5.68;;;;;;;;;;5052942;28;20045;-71
2023/01/07 06:07:52;;;;;;;7.15;5.47;;;;;;;;;;5052818;28;20048;-76
2023/01/07 06:10:19;;;;;;;7.80;5.80;;;;;;;;;;5035750;28;20044;-76
2023/01/07 06:12:45;;;;;;;7.45;5.50;;;;;;;;;;5040947;28;20055;-71
2023/01/07 06:15:11;;;;;;;7.97;5.53;;;;;;;;;;5053053;28;20052;-72
2023/01/07 06:17:37;;;;;;;8.80;5.80;;;;;;;;;;5053487;28;20044;-72
2023/01/07 06:20:04;;;;;;;8.45;5.78;;;16.00;97.90;;;;;;5052829;28;20129;-70
2023/01/07 06:22:30;;;;;;;6.93;5.10;;;;;;;;;;5014832;28;20041;-71
2023/01/07 06:24:56;;;;;;;7.03;5.15;;;;;;;;;;5039910;28;20106;-74
2023/01/07 06:27:22;;;;;;;7.63;5.43;;;16.10;97.90;;;;;;5015168;28;20053;-75
2023/01/07 06:29:48;;;;;;;8.20;5.45;;;;;;;;;;5033962;28;20053;-72
2023/01/07 06:32:15;;;;;;;6.88;4.90;;;;;;;;;;5032288;28;20064;-71
2023/01/07 06:34:40;;;;;;;7.80;5.30;;;15.90;97.90;;;;;;5032516;28;20045;-72
2023/01/07 06:37:06;;;;;;;9.73;5.43;;;16.20;98.00;;;;;;5033421;28;20049;-70
2023/01/07 06:39:32;;;;;;;8.30;5.53;;;;;;;;;;5033628;28;20053;-72
2023/01/07 06:41:58;;;;;;;10.00;5.40;;;16.00;96.80;;;;;;5032914;28;20056;-71
2023/01/07 06:44:24;;;;;;;9.20;5.45;;;16.00;98.00;;;;;;5031896;28;20041;-72
2023/01/07 06:46:50;;;;;;;8.80;5.30;;;15.70;98.00;;;;;;5032864;28;20402;-72
2023/01/07 06:49:16;;;;;;;9.23;5.18;;;;;;;;;;5032017;28;20100;-70
2023/01/07 06:51:42;;;;;;;7.15;5.03;;;15.70;97.90;;;;;;5033028;28;20490;-76
2023/01/07 06:54:08;;;;;;;8.95;5.60;;;;;;;;;;5033319;28;20422;-71
2023/01/07 06:56:34;;;;;;;6.82;4.85;;;16.00;97.90;;;;;;5032878;28;20037;-72
2023/01/07 06:59:00;;;;;;;8.27;4.70;;;;;;;;;;5033162;28;20099;-70
2023/01/07 07:01:26;;;;;;;7.78;4.90;;;;;;;;;;5033239;28;20434;-71
2023/01/07 07:03:52;;;;;;;6.68;4.80;;;;;;;;;;5031814;28;20179;-71
2023/01/07 07:06:18;;;;;;;7.38;5.05;;;;;;;;;;5031036;28;20094;-72
2023/01/07 07:08:44;;;;;;;7.43;4.95;;;;;;;;;;5035443;28;20041;-72
2023/01/07 07:11:10;;;;;;;9.57;5.05;;;16.00;98.00;;;;;;5037028;28;20041;-72
2023/01/07 07:13:36;;;;;;;7.55;4.78;;;15.90;98.00;;;;;;5036785;28;20395;-72
2023/01/07 07:16:02;;;;;;;6.53;4.55;;;;;;;;;;5036477;28;20479;-71
2023/01/07 07:18:29;;;;;;;8.00;4.88;;;15.70;96.80;;;;;;5036252;28;20057;-70
2023/01/07 07:20:57;;;;;;;7.60;4.72;;;;;;;;;;5034800;28;20056;-70
2023/01/07 07:23:23;;;;;;;7.28;4.63;;;;;;;;;;5035184;28;20112;-71
2023/01/07 07:25:49;;;;;;;8.52;4.82;;;;;;;;;;5034643;28;20056;-70
2023/01/07 07:28:16;;;;;;;7.82;4.40;;;15.90;97.90;;;;;;5035953;28;20128;-72
2023/01/07 07:30:42;;;;;;;6.78;4.60;;;;;;;;;;5034887;28;20071;-70
2023/01/07 07:33:08;;;;;;;7.15;4.40;;;;;;;;;;5036030;28;20051;-72
2023/01/07 07:35:34;;;;;;;6.55;4.18;;;16.00;98.00;;;;;;5036153;28;20064;-72
2023/01/07 07:38:00;;;;;;;7.05;4.25;;;;;;;;;;5034785;28;20053;-70
2023/01/07 07:40:26;;;;;;;6.43;4.38;;;;;;;;;;5034953;28;20391;-72
2023/01/07 07:42:52;;;;;;;7.93;4.50;;;;;;;;;;5036073;28;20080;-70
2023/01/07 07:45:18;;;;;;;6.40;3.88;;;15.80;98.00;;;;;;5035064;28;20045;-71
2023/01/07 07:47:45;;;;;;;6.13;4.10;;;15.80;98.00;;;;;;5035134;28;20073;-71
2023/01/07 07:50:11;;;;;;;6.32;3.78;;;;;;;;;;5035972;28;20376;-71
2023/01/07 07:52:37;;;;;;;7.25;4.28;;;;;;;;;;5036079;28;20060;-72
2023/01/07 07:55:03;;;;;;;7.30;4.00;;;16.00;98.00;;;;;;5035907;28;20052;-71
2023/01/07 07:57:29;;;;;;;6.15;3.78;;;;;;;;;;5033989;28;20045;-65
2023/01/07 07:59:55;;;;;;;6.75;3.78;;;16.00;98.00;;;;;;5035774;28;20052;-72
2023/01/07 08:02:21;;;;;;;6.50;3.65;;;15.80;96.70;;;;;;5036646;28;20046;-71
2023/01/07 08:04:46;;;;;;;8.93;3.88;;;16.00;97.90;;;;;;5035850;28;20498;-72
2023/01/07 08:07:12;;;;;;;5.85;3.67;;;15.90;96.80;;;;;;5035755;28;20045;-71
2023/01/07 08:09:38;;;;;;;6.63;3.60;;;15.60;97.80;;;;;;5034383;28;20394;-70
2023/01/07 08:12:07;;;;;;;6.65;3.80;;;;;;;;;;5025867;28;20132;-71
2023/01/07 08:14:36;;;;;;;8.50;3.95;;;;;;;;;;5035839;28;20133;-70
2023/01/07 08:17:02;;;;;;;7.40;3.47;;;;;;;;;;5036200;28;20041;-72
2023/01/07 08:19:28;;;;;;;6.85;3.78;;;;;;;;;;5034242;28;20136;-71
2023/01/07 08:21:54;;;;;;;5.65;3.50;;;16.10;98.00;;;;;;5034385;28;20048;-70
2023/01/07 08:24:20;;;;;;;6.82;3.88;;;16.00;97.90;;;;;;5034703;28;20050;-71
2023/01/07 08:26:45;;;;;;;5.65;3.60;;;15.90;97.80;;;;;;5049717;28;20071;-72
2023/01/07 08:29:11;;;;;;;5.57;3.47;;;;;;;;;;5055357;28;20041;-73
2023/01/07 08:31:38;;;;;;;5.10;3.10;;;;;;;;;;5054197;28;20051;-70
2023/01/07 08:34:03;;;;;;;6.53;3.45;;;16.20;98.00;;;;;;5055177;28;20045;-71
2023/01/07 08:36:29;;;;;;;5.43;3.20;;;16.00;97.80;;;;;;5036682;28;20045;-72
2023/01/07 08:38:55;;;;;;;5.63;3.42;;;15.90;98.00;;;;;;5054830;28;20075;-71
2023/01/07 08:41:22;;;;;;;5.70;3.38;;;;;;;;;;5055642;28;20043;-76
2023/01/07 08:43:49;;;;;;;7.70;3.40;;;;;;;;;;5058121;28;20037;-77
2023/01/07 08:46:15;;;;;;;5.70;2.83;;;;;;;;;;5056100;28;20130;-71
2023/01/07 08:48:41;;;;;;;5.07;2.83;;;16.20;97.90;;;;;;5054695;28;20508;-72
2023/01/07 08:51:06;;;;;;;6.13;3.28;;;16.00;96.60;;;;;;5054117;28;20049;-71
2023/01/07 08:53:32;;;;;;;5.45;3.25;;;15.90;97.70;;;;;;5053721;28;20128;-72
2023/01/07 08:55:58;;;;;;;6.78;3.00;;;15.90;97.80;;;;;;5054294;28;20479;-70
2023/01/07 08:58:24;;;;;;;8.60;3.22;;;16.00;97.70;;;;;;5054393;28;20166;-70
2023/01/07 09:00:53;;;;;;;7.72;3.30;;;16.30;96.10;;;;;;5054696;28;20051;-71
2023/01/07 09:03:20;;;;;;;7.90;3.45;;;;;;;;;;5055415;28;20041;-76
2023/01/07 09:05:46;;;;;;;7.35;3.22;;;;;;;;;;5022451;28;20120;-76
2023/01/07 09:08:12;;;;;;;5.97;3.35;;;;;;;;;;5056697;28;20091;-72
2023/01/07 09:10:38;;;;;;;5.13;3.10;;;16.10;97.60;;;;;;5053853;28;20111;-70
2023/01/07 09:13:04;;;;;;;5.60;3.20;;;16.20;97.70;;;;;;5049242;28;20462;-70
2023/01/07 09:15:30;;;;;;;7.15;3.10;;;;;;;;;;5036013;28;20379;-71
2023/01/07 09:17:57;;;;;;;6.63;3.25;;;;;;;;;;5053816;28;20041;-70
2023/01/07 09:20:23;;;;;;;5.53;3.05;;;;;;;;;;5036311;28;20037;-69
2023/01/07 09:22:49;;;;;;;5.20;3.08;;;;;;;;;;5052748;28;20132;-71
2023/01/07 09:25:15;;;;;;;5.93;3.17;;;;;;;;;;5036719;28;20466;-72
2023/01/07 09:27:44;;;;;;;5.30;3.30;;;16.10;97.60;;;;;;5034101;28;20099;-72
2023/01/07 09:30:10;;;;;;;6.18;2.95;;;16.20;97.60;;;;;;5033333;28;20132;-72
2023/01/07 09:32:36;;;;;;;6.20;3.00;;;15.90;97.50;;;;;;5033016;28;20506;-70
2023/01/07 09:35:03;;;;;;;4.60;2.70;;;16.10;97.50;;;;;;5034185;28;20045;-71
2023/01/07 09:37:29;;;;;;;5.03;2.90;;;;;;;;;;5033792;28;20491;-72
2023/01/07 09:39:55;;;;;;;6.22;3.00;;;;;;;;;;5035800;28;20124;-76
2023/01/07 09:42:47;;;;;;;5.72;2.63;;;16.10;95.60;;;;;;5035032;28;20052;-75
2023/01/07 09:45:16;;;;;;;5.82;2.85;;;16.20;96.20;;;;;;5036263;28;20053;-74
2023/01/07 09:47:44;;;;;;;4.57;2.85;;;16.20;96.00;;;;;;5016255;28;20045;-70
2023/01/07 09:50:43;;;;;;;5.10;3.00;;;16.20;97.40;;;;;;5033783;28;20056;-70
2023/01/07 09:53:20;;;;;;;5.63;2.67;;;16.30;96.20;;;;;;4990729;28;20046;-70
2023/01/07 09:55:47;;;;;;;4.85;2.47;;;;;;;;;;4972730;28;20062;-70
2023/01/07 09:58:14;;;;;;;5.32;2.78;;;;;;;;;;4970411;28;20078;-67
2023/01/07 10:00:39;;;;;;;4.32;2.38;;;16.20;97.20;;;;;;4958901;28;20117;-72
2023/01/07 10:03:32;;;;;;;5.10;2.58;;;16.30;97.30;;;;;;4952106;28;20525;-71
2023/01/07 10:06:09;;;;;;;4.25;2.70;;;16.20;97.30;;;;;;4972659;28;20051;-71
2023/01/07 10:09:12;;;;;;;4.55;2.45;;;16.40;95.50;;;;;;4978349;28;20052;-70
2023/01/07 10:12:04;;;;;;;5.28;2.50;;;16.20;95.50;;;;;;4975741;28;20432;-70
2023/01/07 10:14:45;;;;;;;4.97;2.58;;;16.40;97.30;;;;;;4975282;28;20531;-70
2023/01/07 10:17:33;;;;;;;5.00;2.63;;;16.10;96.00;;;;;;4981540;28;20553;-76
2023/01/07 10:20:00;;;;;;;6.45;2.42;;;;;;;;;;4980205;28;20058;-76
2023/01/07 10:22:35;;;;;;;3.97;2.30;;;16.10;95.30;;;;;;4974218;28;20047;-69
2023/01/07 10:25:11;;;;;;;5.80;2.67;;;16.40;97.20;;;;;;4956184;28;20047;-72
2023/01/07 10:27:39;;;;;;;5.38;2.53;;;16.30;97.20;;;;;;4954991;28;20060;-70
2023/01/07 10:30:09;;;;;;;5.47;2.50;;;16.30;95.70;;;;;;4996476;28;20104;-73
2023/01/07 10:32:35;;;;;;;5.25;2.40;;;16.20;97.10;;;;;;5012638;28;20423;-70
2023/01/07 10:35:01;;;;;;;3.63;2.10;;;16.40;97.20;;;;;;5011649;28;20042;-70
2023/01/07 10:37:35;;;;;;;4.63;2.20;;;16.20;97.10;;;;;;5012502;28;20050;-72
2023/01/07 10:40:10;;;;;;;3.65;2.20;;;16.40;95.00;;;;;;5045307;28;20057;-76
2023/01/07 10:42:54;;;;;;;4.28;2.47;;;16.00;95.60;;;;;;5020407;28;20046;-76
2023/01/07 10:45:54;;;;;;;4.63;2.30;;;16.00;95.10;;;;;;5013907;28;20050;-72
2023/01/07 10:48:20;;;;;;;4.63;2.47;;;16.30;97.40;;;;;;5017306;28;20513;-71
2023/01/07 10:51:14;;;;;;;3.95;2.00;;;16.30;95.80;;;;;;5017608;28;20133;-71
2023/01/07 10:53:46;;;;;;;3.97;2.13;;;16.20;96.90;;;;;;5014767;28;20081;-70
2023/01/07 10:56:24;;;;;;;3.88;2.22;;;16.20;97.00;;;;;;5016308;28;20081;-72
2023/01/07 10:58:50;;;;;;;5.18;2.00;;;16.20;97.00;;;;;;5015950;28;20045;-72
2023/01/07 11:01:36;;;;;;;4.45;2.20;;;;;;;;;;5048764;28;20053;-75
2023/01/07 11:04:02;;;;;;;4.65;2.10;;;;;;;;;;5022255;28;20096;-70
2023/01/07 11:07:02;;;;;;;4.28;2.17;;;16.40;95.70;;;;;;5018344;28;20041;-71
2023/01/07 11:09:37;;;;;;;3.92;1.92;;;16.20;96.80;;;;;;4965632;28;20123;-70
2023/01/07 11:12:23;;;;;;;3.88;2.00;;;;;;;;;;4952834;28;20055;-70
2023/01/07 11:14:49;;;;;;;4.28;2.17;;;;;;;;;;4941374;28;20063;-70
2023/01/07 11:17:27;;;;;;;3.92;1.92;;;;;;;;;;4972586;28;20043;-71
2023/01/07 11:19:53;;;;;;;4.93;1.83;;;;;;;;;;4938062;29;20410;-68
2023/01/07 11:22:25;;;;;;;4.07;1.88;;;;;;;;;;4966454;28;20050;-71
2023/01/07 11:24:52;;;;;;;5.57;2.13;;;15.90;94.90;;;;;;4956189;28;20042;-71
2023/01/07 11:27:18;;;;;;;5.75;2.08;;;16.30;96.70;;;;;;4991996;28;20054;-70
2023/01/07 11:29:45;;;;;;;4.22;2.20;;;16.30;95.20;;;;;;4972273;28;20046;-76
2023/01/07 11:32:39;;;;;;;4.68;1.92;;;16.20;95.40;;;;;;4965763;28;20069;-71
2023/01/07 11:35:05;;;;;;;;;;;;;;;;;;4974010;28;20071;-70
2023/01/07 11:37:41;;;;;;;4.25;1.85;;;16.20;95.30;;;;;;4975251;28;19972;-71
2023/01/07 11:40:13;;;;;;;3.60;1.77;;;16.30;94.70;;;;;;4945906;29;20059;-76
2023/01/07 11:42:52;;;;;;;4.20;1.55;;;16.50;96.60;;;;;;4961173;28;20133;-70
2023/01/07 11:45:21;;;;;;;4.10;1.77;;;16.30;96.50;;;;;;4965311;28;20054;-71
2023/01/07 11:48:00;;;;;;;3.45;1.80;;;16.20;96.50;;;;;;5015651;28;20045;-71
2023/01/07 11:50:32;;;;;;;3.22;1.70;;;16.40;96.60;;;;;;5015017;28;20053;-72
2023/01/07 11:53:11;;;;;;;4.13;1.83;;;;;;;;;;5031854;28;20050;-71
2023/01/07 11:55:37;;;;;;;5.00;1.83;;;16.40;96.50;;;;;;5033100;28;20042;-71
2023/01/07 11:58:05;;;;;;;3.40;1.80;;;16.20;96.50;;;;;;5035905;28;20047;-71
2023/01/07 12:00:31;;;;;;;5.10;1.70;;;16.40;96.50;;;;;;5034912;28;20045;-72
2023/01/07 12:03:09;;;;;;;3.80;1.70;;;16.40;95.30;;;;;;5034556;28;20467;-71
2023/01/07 12:05:35;;;;;;;2.97;1.40;;;;;;;;;;5035042;28;20041;-72
2023/01/07 12:08:02;;;;;;;4.55;1.98;;;;;;;;;;5024735;28;20048;-76
2023/01/07 12:10:33;;;;;;;3.13;1.60;;;16.40;95.00;;;;;;5060413;28;20041;-76
2023/01/07 12:12:59;;;;;;;3.28;1.55;;;;;;;;;;5042763;28;20050;-74
2023/01/07 12:15:36;;;;;;;2.85;1.70;;;;;;;;;;5024539;28;20492;-67
2023/01/07 12:18:40;;;;;;;3.40;1.70;;;16.00;95.00;;;;;;5038506;28;20041;-71
2023/01/07 12:21:31;;;;;;;3.25;1.55;;;16.10;96.30;;;;;;5012107;28;20100;-71
2023/01/07 12:24:22;;;;;;;3.08;2.00;;;16.40;96.30;;;;;;5034626;28;20158;-70
2023/01/07 12:27:17;;;;;;;7.88;1.52;;;15.80;96.10;;;;;;5027616;28;20069;-69
2023/01/07 12:30:09;;;;;;;3.65;1.50;;;16.20;95.50;;;;;;5019706;28;20045;-70
2023/01/07 12:33:05;;;;;;;2.70;1.52;;;16.20;94.40;;;;;;5028232;28;20103;-71
2023/01/07 12:35:42;;;;;;;3.50;1.70;;;16.10;96.20;;;;;;5042594;28;20051;-70
2023/01/07 12:38:20;;;;;;;3.13;1.63;;;16.30;96.20;;;;;;5035915;28;20045;-72
2023/01/07 12:41:00;;;;;;;3.80;1.90;;;16.40;94.30;;;;;;5034031;28;20060;-71
2023/01/07 12:43:33;;;;;;;4.07;1.63;;;16.20;96.10;;;;;;5034108;28;20115;-70
2023/01/07 12:46:06;;;;;;;4.28;2.00;;;15.90;96.00;;;;;;5034699;28;20096;-70
2023/01/07 12:48:56;;;;;;;2.75;1.60;;;16.10;96.10;;;;;;5034637;28;20041;-70
2023/01/07 12:51:44;;;;;;;2.78;1.48;;;16.10;94.80;;;;;;5033831;28;20120;-72
2023/01/07 12:54:49;;;;;;;4.78;2.20;;;16.10;96.00;;;;;;5034263;28;20077;-71
2023/01/07 12:57:17;;;;;;;4.55;1.80;;;;;;;;;;5033225;28;20038;-69
2023/01/07 13:00:07;;;;;;;2.75;1.50;;;16.50;96.00;;;;;;5033598;28;20042;-70
2023/01/07 13:03:14;;;;;;;4.13;1.98;;;16.40;94.10;;;;;;5036270;28;20080;-70
2023/01/07 13:05:47;;;;;;;3.30;1.70;;;16.50;96.00;;;;;;4997534;28;20056;-72
2023/01/07 13:08:38;;;;;;;4.18;1.77;;;16.40;93.80;;;;;;5015186;28;20060;-67
2023/01/07 13:11:10;;;;;;;3.45;1.63;;;;;;;;;;5034525;28;20049;-71
2023/01/07 13:13:43;;;;;;;3.08;1.60;;;16.20;95.80;;;;;;5033520;28;20060;-71
2023/01/07 13:16:13;;;;;;;3.53;2.00;;;16.20;95.80;;;;;;5034743;28;20052;-71
2023/01/07 13:18:41;;;;;;;3.80;1.75;;;16.20;95.60;;;;;;5032434;28;20491;-71
2023/01/07 13:21:15;;;;;;;3.78;1.50;;;16.20;94.40;;;;;;5033725;28;20045;-71
2023/01/07 13:24:09;;;;;;;4.25;1.52;;;16.10;93.70;;;;;;5000294;28;20041;-71
2023/01/07 13:26:54;;;;;;;3.80;1.60;;;16.30;95.50;;;;;;5032586;28;20045;-71
2023/01/07 13:29:29;;;;;;;3.95;1.70;;;16.20;95.50;;;;;;5049618;28;20059;-70
2023/01/07 13:32:21;;;;;;;4.30;1.67;;;16.30;93.50;;;;;;5034181;28;20103;-71
2023/01/07 13:34:54;;;;;;;3.73;1.57;;;15.90;95.30;;;;;;5033200;28;20080;-72
2023/01/07 13:37:35;;;;;;;4.40;1.73;;;16.00;95.30;;;;;;5034772;28;20052;-72
2023/01/07 13:40:28;;;;;;;4.85;2.13;;;16.20;93.40;;;;;;5032454;28;20517;-71
2023/01/07 13:42:58;;;;;;;;;;;16.30;93.80;;;;;;5034422;28;20049;-72
2023/01/07 13:45:25;;;;;;;5.30;1.73;;;16.10;95.20;;;;;;5033220;28;19921;-72